TVF7251 DAOO-LFPO
Flight info
| Callsign | TVF7251 |
|---|---|
| Flight time | 1h 59m |
| Altitude | 34000 |
| Route | SID54 HAMRA N608 COMPI/N0453F360 N608 GIROM DCT KOLIS DCT FOUCO DCT AMB |
| Aircraft | B738/M-SDE2E3FGHIRWXY/LB1 |
Departure
| Time | 2026-05-07 11:09 |
|---|---|
| Airport | Oran Es-Sénia (Ahmed Ben Bella) International Airport (DAOO) |
Arrival
| Time | 2026-05-07 13:08 |
|---|---|
| Airport | Paris-Orly Airport (LFPO) |
| Time | Latitude | Longitude | Altitude | Speed | Heading |
|---|---|---|---|---|---|
| 2026-05-07 10:52 | 35.62181 | -0.60492 | 309 ft | 0 kts | 203° |
| 2026-05-07 11:03 | 35.62177 | -0.60494 | 309 ft | 1 kts | 210° |
| 2026-05-07 11:03 | 35.62177 | -0.60502 | 308 ft | 1 kts | 268° |
| 2026-05-07 11:03 | 35.62186 | -0.60513 | 308 ft | 3 kts | 314° |
| 2026-05-07 11:04 | 35.62211 | -0.60530 | 309 ft | 5 kts | 351° |
| 2026-05-07 11:04 | 35.62241 | -0.60513 | 308 ft | 5 kts | 53° |
| 2026-05-07 11:04 | 35.62256 | -0.60470 | 309 ft | 7 kts | 67° |
| 2026-05-07 11:04 | 35.62278 | -0.60407 | 309 ft | 9 kts | 67° |
| 2026-05-07 11:05 | 35.62298 | -0.60378 | 309 ft | 0 kts | 34° |
| 2026-05-07 11:05 | 35.62299 | -0.60378 | 309 ft | 0 kts | 24° |
| 2026-05-07 11:05 | 35.62317 | -0.60373 | 309 ft | 6 kts | 14° |
| 2026-05-07 11:05 | 35.62386 | -0.60355 | 308 ft | 14 kts | 12° |
| 2026-05-07 11:06 | 35.62488 | -0.60352 | 310 ft | 11 kts | 354° |
| 2026-05-07 11:06 | 35.62557 | -0.60375 | 309 ft | 10 kts | 338° |
| 2026-05-07 11:06 | 35.62621 | -0.60409 | 309 ft | 10 kts | 336° |
| 2026-05-07 11:06 | 35.62682 | -0.60441 | 309 ft | 10 kts | 339° |
| 2026-05-07 11:07 | 35.62744 | -0.60471 | 308 ft | 9 kts | 338° |
| 2026-05-07 11:07 | 35.62804 | -0.60502 | 309 ft | 9 kts | 336° |
| 2026-05-07 11:07 | 35.62859 | -0.60538 | 309 ft | 9 kts | 317° |
| 2026-05-07 11:07 | 35.62882 | -0.60605 | 309 ft | 9 kts | 275° |
| 2026-05-07 11:08 | 35.62872 | -0.60677 | 309 ft | 8 kts | 251° |
| 2026-05-07 11:08 | 35.62851 | -0.60743 | 309 ft | 4 kts | 248° |
| 2026-05-07 11:08 | 35.62845 | -0.60763 | 309 ft | 15 kts | 248° |
| 2026-05-07 11:08 | 35.62681 | -0.61240 | 310 ft | 103 kts | 247° |
| 2026-05-07 11:09 | 35.62304 | -0.62318 | 455 ft | 160 kts | 244° |
| 2026-05-07 11:09 | 35.61872 | -0.63679 | 1206 ft | 178 kts | 246° |
| 2026-05-07 11:09 | 35.61344 | -0.65151 | 1987 ft | 201 kts | 244° |
| 2026-05-07 11:09 | 35.60615 | -0.66746 | 2484 ft | 229 kts | 234° |
| 2026-05-07 11:10 | 35.59573 | -0.68288 | 3332 ft | 239 kts | 230° |
| 2026-05-07 11:10 | 35.58493 | -0.69823 | 4475 ft | 237 kts | 231° |
| 2026-05-07 11:10 | 35.57433 | -0.71395 | 5583 ft | 240 kts | 232° |
| 2026-05-07 11:10 | 35.56386 | -0.73014 | 6668 ft | 243 kts | 233° |
| 2026-05-07 11:11 | 35.55346 | -0.74661 | 7673 ft | 245 kts | 233° |
| 2026-05-07 11:11 | 35.54317 | -0.76311 | 8662 ft | 248 kts | 233° |
| 2026-05-07 11:11 | 35.53264 | -0.78005 | 9635 ft | 251 kts | 234° |
| 2026-05-07 11:11 | 35.52412 | -0.79869 | 10506 ft | 253 kts | 255° |
| 2026-05-07 11:12 | 35.52312 | -0.82014 | 11385 ft | 255 kts | 278° |
| 2026-05-07 11:12 | 35.52922 | -0.84062 | 12241 ft | 261 kts | 300° |
| 2026-05-07 11:12 | 35.54181 | -0.85706 | 13048 ft | 271 kts | 322° |
| 2026-05-07 11:12 | 35.55961 | -0.86590 | 13823 ft | 285 kts | 348° |
| 2026-05-07 11:13 | 35.57972 | -0.86385 | 14457 ft | 301 kts | 17° |
| 2026-05-07 11:13 | 35.59725 | -0.84970 | 15039 ft | 314 kts | 48° |
| 2026-05-07 11:13 | 35.60745 | -0.82591 | 15635 ft | 320 kts | 81° |
| 2026-05-07 11:13 | 35.61148 | -0.79863 | 16011 ft | 337 kts | 71° |
| 2026-05-07 11:14 | 35.62420 | -0.77362 | 16169 ft | 358 kts | 41° |
| 2026-05-07 11:14 | 35.64548 | -0.75681 | 16355 ft | 373 kts | 20° |
| 2026-05-07 11:14 | 35.67043 | -0.74543 | 16508 ft | 392 kts | 15° |
| 2026-05-07 11:14 | 35.69700 | -0.73469 | 16751 ft | 410 kts | 15° |
| 2026-05-07 11:15 | 35.72415 | -0.72283 | 17231 ft | 417 kts | 17° |
| 2026-05-07 11:15 | 35.75133 | -0.70953 | 17774 ft | 423 kts | 20° |
| 2026-05-07 11:15 | 35.77857 | -0.69490 | 18271 ft | 429 kts | 21° |
| 2026-05-07 11:15 | 35.80583 | -0.67930 | 18751 ft | 434 kts | 22° |
| 2026-05-07 11:16 | 35.83308 | -0.66313 | 19252 ft | 437 kts | 23° |
| 2026-05-07 11:16 | 35.86047 | -0.64655 | 19734 ft | 441 kts | 24° |
| 2026-05-07 11:16 | 35.88807 | -0.62971 | 20198 ft | 445 kts | 24° |
| 2026-05-07 11:16 | 35.91593 | -0.61268 | 20651 ft | 448 kts | 24° |
| 2026-05-07 11:17 | 35.94404 | -0.59550 | 21099 ft | 452 kts | 24° |
| 2026-05-07 11:17 | 35.97235 | -0.57822 | 21539 ft | 456 kts | 24° |
| 2026-05-07 11:17 | 36.00054 | -0.56102 | 21955 ft | 460 kts | 24° |
| 2026-05-07 11:17 | 36.02933 | -0.54346 | 22374 ft | 464 kts | 25° |
| 2026-05-07 11:18 | 36.05834 | -0.52577 | 22789 ft | 467 kts | 25° |
| 2026-05-07 11:18 | 36.08760 | -0.50791 | 23192 ft | 471 kts | 25° |
| 2026-05-07 11:18 | 36.11718 | -0.48983 | 23567 ft | 476 kts | 25° |
| 2026-05-07 11:18 | 36.14694 | -0.47164 | 23901 ft | 479 kts | 25° |
| 2026-05-07 11:19 | 36.17690 | -0.45330 | 24293 ft | 480 kts | 25° |
| 2026-05-07 11:19 | 36.20699 | -0.43487 | 24680 ft | 482 kts | 25° |
| 2026-05-07 11:19 | 36.23716 | -0.41637 | 25024 ft | 485 kts | 25° |
| 2026-05-07 11:19 | 36.26743 | -0.39780 | 25357 ft | 487 kts | 25° |
| 2026-05-07 11:20 | 36.29789 | -0.37909 | 25717 ft | 489 kts | 25° |
| 2026-05-07 11:20 | 36.32847 | -0.36030 | 26066 ft | 491 kts | 26° |
| 2026-05-07 11:20 | 36.35874 | -0.34167 | 26391 ft | 493 kts | 26° |
| 2026-05-07 11:20 | 36.38957 | -0.32269 | 26711 ft | 495 kts | 26° |
| 2026-05-07 11:21 | 36.42051 | -0.30362 | 27021 ft | 498 kts | 26° |
| 2026-05-07 11:21 | 36.45160 | -0.28444 | 27332 ft | 500 kts | 26° |
| 2026-05-07 11:21 | 36.48284 | -0.26515 | 27639 ft | 502 kts | 26° |
| 2026-05-07 11:21 | 36.51417 | -0.24579 | 27924 ft | 504 kts | 26° |
| 2026-05-07 11:22 | 36.54566 | -0.22631 | 28207 ft | 506 kts | 26° |
| 2026-05-07 11:22 | 36.57730 | -0.20672 | 28487 ft | 509 kts | 27° |
| 2026-05-07 11:22 | 36.60899 | -0.18708 | 28779 ft | 511 kts | 27° |
| 2026-05-07 11:22 | 36.64089 | -0.16730 | 29031 ft | 513 kts | 27° |
| 2026-05-07 11:23 | 36.67284 | -0.14746 | 29294 ft | 515 kts | 27° |
| 2026-05-07 11:23 | 36.70500 | -0.12747 | 29560 ft | 517 kts | 27° |
| 2026-05-07 11:23 | 36.73727 | -0.10740 | 29853 ft | 518 kts | 27° |
| 2026-05-07 11:23 | 36.76943 | -0.08738 | 30186 ft | 517 kts | 27° |
| 2026-05-07 11:24 | 36.80161 | -0.06733 | 30527 ft | 515 kts | 27° |
| 2026-05-07 11:24 | 36.83387 | -0.04773 | 30835 ft | 515 kts | 23° |
| 2026-05-07 11:24 | 36.86768 | -0.03305 | 31097 ft | 515 kts | 14° |
| 2026-05-07 11:24 | 36.90280 | -0.02403 | 31384 ft | 513 kts | 5° |
| 2026-05-07 11:25 | 36.93821 | -0.02141 | 31684 ft | 509 kts | 358° |
| 2026-05-07 11:25 | 36.97365 | -0.02140 | 31996 ft | 508 kts | 356° |
| 2026-05-07 11:25 | 37.00893 | -0.02179 | 32277 ft | 508 kts | 356° |
| 2026-05-07 11:25 | 37.04426 | -0.02218 | 32550 ft | 508 kts | 356° |
| 2026-05-07 11:26 | 37.07962 | -0.02240 | 32835 ft | 507 kts | 356° |
| 2026-05-07 11:26 | 37.11483 | -0.02241 | 33117 ft | 507 kts | 356° |
| 2026-05-07 11:26 | 37.14966 | -0.02229 | 33377 ft | 507 kts | 356° |
| 2026-05-07 11:26 | 37.18497 | -0.02207 | 33625 ft | 507 kts | 356° |
| 2026-05-07 11:27 | 37.22025 | -0.02181 | 33872 ft | 507 kts | 356° |
| 2026-05-07 11:27 | 37.25549 | -0.02155 | 34084 ft | 507 kts | 356° |
| 2026-05-07 11:27 | 37.29075 | -0.02129 | 34313 ft | 506 kts | 356° |
| 2026-05-07 11:27 | 37.32596 | -0.02105 | 34563 ft | 505 kts | 356° |
| 2026-05-07 11:28 | 37.36105 | -0.02081 | 34809 ft | 504 kts | 356° |
| 2026-05-07 11:28 | 37.39603 | -0.02058 | 35059 ft | 502 kts | 356° |
| 2026-05-07 11:28 | 37.43098 | -0.02035 | 35307 ft | 501 kts | 356° |
| 2026-05-07 11:28 | 37.46584 | -0.02012 | 35548 ft | 499 kts | 356° |
| 2026-05-07 11:29 | 37.50051 | -0.01990 | 35783 ft | 498 kts | 355° |
| 2026-05-07 11:29 | 37.53515 | -0.01968 | 36021 ft | 497 kts | 355° |
| 2026-05-07 11:29 | 37.56962 | -0.01945 | 36290 ft | 494 kts | 355° |
| 2026-05-07 11:29 | 37.60396 | -0.01922 | 36565 ft | 492 kts | 355° |
| 2026-05-07 11:30 | 37.63813 | -0.01900 | 36789 ft | 491 kts | 355° |
| 2026-05-07 11:30 | 37.67228 | -0.01879 | 36936 ft | 491 kts | 355° |
| 2026-05-07 11:30 | 37.74092 | -0.01837 | 36952 ft | 493 kts | 355° |
| 2026-05-07 11:31 | 37.80944 | -0.01791 | 36946 ft | 491 kts | 355° |
| 2026-05-07 11:31 | 37.87764 | -0.01746 | 36943 ft | 489 kts | 355° |
| 2026-05-07 11:32 | 37.97964 | -0.01681 | 36946 ft | 488 kts | 355° |
| 2026-05-07 11:33 | 38.04703 | -0.01641 | 36950 ft | 487 kts | 355° |
| 2026-05-07 11:33 | 38.11487 | -0.01601 | 36955 ft | 488 kts | 355° |
| 2026-05-07 11:34 | 38.18287 | -0.01561 | 36963 ft | 489 kts | 355° |
| 2026-05-07 11:34 | 38.25116 | -0.01521 | 36957 ft | 491 kts | 355° |
| 2026-05-07 11:35 | 38.31965 | -0.01479 | 36966 ft | 493 kts | 355° |
| 2026-05-07 11:35 | 38.38841 | -0.01437 | 36961 ft | 495 kts | 355° |
| 2026-05-07 11:36 | 38.45746 | -0.01395 | 36967 ft | 497 kts | 355° |
| 2026-05-07 11:36 | 38.52663 | -0.01351 | 36972 ft | 498 kts | 355° |
| 2026-05-07 11:37 | 38.59610 | -0.01305 | 36967 ft | 499 kts | 355° |
| 2026-05-07 11:37 | 38.66556 | -0.01258 | 36955 ft | 499 kts | 355° |
| 2026-05-07 11:38 | 38.73500 | -0.01212 | 36965 ft | 499 kts | 355° |
| 2026-05-07 11:38 | 38.80394 | -0.01166 | 36967 ft | 498 kts | 355° |
| 2026-05-07 11:39 | 38.87330 | -0.01119 | 36975 ft | 498 kts | 355° |
| 2026-05-07 11:39 | 38.94261 | -0.01074 | 36974 ft | 498 kts | 355° |
| 2026-05-07 11:40 | 39.01185 | -0.01027 | 36976 ft | 497 kts | 355° |
| 2026-05-07 11:40 | 39.08103 | -0.00981 | 36980 ft | 497 kts | 355° |
| 2026-05-07 11:41 | 39.15009 | -0.00935 | 36976 ft | 496 kts | 355° |
| 2026-05-07 11:41 | 39.21909 | -0.00888 | 36976 ft | 495 kts | 355° |
| 2026-05-07 11:42 | 39.28800 | -0.00842 | 36977 ft | 495 kts | 355° |
| 2026-05-07 11:42 | 39.35688 | -0.00796 | 36979 ft | 494 kts | 355° |
| 2026-05-07 11:43 | 39.42523 | -0.00753 | 36976 ft | 494 kts | 356° |
| 2026-05-07 11:43 | 39.49395 | -0.00711 | 36978 ft | 494 kts | 356° |
| 2026-05-07 11:44 | 39.56268 | -0.00669 | 36976 ft | 494 kts | 356° |
| 2026-05-07 11:44 | 39.63135 | -0.00626 | 36976 ft | 493 kts | 356° |
| 2026-05-07 11:45 | 39.70007 | -0.00584 | 36977 ft | 493 kts | 356° |
| 2026-05-07 11:45 | 39.76873 | -0.00541 | 36976 ft | 493 kts | 356° |
| 2026-05-07 11:46 | 39.83747 | -0.00252 | 36969 ft | 497 kts | 4° |
| 2026-05-07 11:46 | 39.90491 | 0.01920 | 36988 ft | 501 kts | 14° |
| 2026-05-07 11:47 | 39.97129 | 0.04535 | 36985 ft | 501 kts | 14° |
| 2026-05-07 11:47 | 40.03813 | 0.07095 | 36991 ft | 501 kts | 13° |
| 2026-05-07 11:48 | 40.10515 | 0.09595 | 36997 ft | 501 kts | 13° |
| 2026-05-07 11:48 | 40.17212 | 0.12092 | 37003 ft | 501 kts | 13° |
| 2026-05-07 11:49 | 40.23914 | 0.14603 | 36996 ft | 500 kts | 13° |
| 2026-05-07 11:49 | 40.30614 | 0.17104 | 37000 ft | 499 kts | 13° |
| 2026-05-07 11:50 | 40.37295 | 0.19596 | 36992 ft | 499 kts | 13° |
| 2026-05-07 11:50 | 40.43964 | 0.22092 | 36995 ft | 498 kts | 13° |
| 2026-05-07 11:51 | 40.50625 | 0.24592 | 36986 ft | 497 kts | 14° |
| 2026-05-07 11:51 | 40.56141 | 0.26665 | 36986 ft | 496 kts | 14° |
| 2026-05-07 11:52 | 40.63840 | 0.29592 | 36986 ft | 494 kts | 14° |
| 2026-05-07 11:52 | 40.69374 | 0.31707 | 36976 ft | 494 kts | 14° |
| 2026-05-07 11:53 | 40.75923 | 0.34213 | 36995 ft | 493 kts | 14° |
| 2026-05-07 11:53 | 40.82503 | 0.36735 | 36966 ft | 492 kts | 14° |
| 2026-05-07 11:54 | 40.89066 | 0.39252 | 36980 ft | 491 kts | 14° |
| 2026-05-07 11:54 | 40.95628 | 0.41771 | 36989 ft | 491 kts | 14° |
| 2026-05-07 11:55 | 41.02195 | 0.44296 | 36993 ft | 492 kts | 14° |
| 2026-05-07 11:55 | 41.08782 | 0.46774 | 36981 ft | 492 kts | 13° |
| 2026-05-07 11:56 | 41.15337 | 0.49253 | 36978 ft | 493 kts | 14° |
| 2026-05-07 11:56 | 41.21936 | 0.51824 | 36975 ft | 494 kts | 14° |
| 2026-05-07 11:57 | 41.28539 | 0.54397 | 36978 ft | 494 kts | 14° |
| 2026-05-07 11:57 | 41.35146 | 0.56967 | 36974 ft | 495 kts | 14° |
| 2026-05-07 11:58 | 41.41750 | 0.59528 | 36975 ft | 494 kts | 14° |
| 2026-05-07 11:58 | 41.48311 | 0.62076 | 36976 ft | 493 kts | 14° |
| 2026-05-07 11:59 | 41.54899 | 0.64639 | 36983 ft | 492 kts | 13° |
| 2026-05-07 11:59 | 41.61556 | 0.66655 | 36991 ft | 489 kts | 8° |
| 2026-05-07 12:00 | 41.68214 | 0.68456 | 36991 ft | 488 kts | 9° |
| 2026-05-07 12:00 | 41.74858 | 0.70305 | 36991 ft | 487 kts | 9° |
| 2026-05-07 12:01 | 41.81480 | 0.72156 | 36990 ft | 486 kts | 9° |
| 2026-05-07 12:01 | 41.88058 | 0.74001 | 36976 ft | 485 kts | 9° |
| 2026-05-07 12:02 | 41.94658 | 0.75879 | 36966 ft | 484 kts | 9° |
| 2026-05-07 12:02 | 42.01249 | 0.77761 | 36955 ft | 484 kts | 9° |
| 2026-05-07 12:03 | 42.07830 | 0.79640 | 36965 ft | 483 kts | 9° |
| 2026-05-07 12:03 | 42.14411 | 0.81524 | 36950 ft | 483 kts | 9° |
| 2026-05-07 12:04 | 42.20976 | 0.83406 | 36962 ft | 482 kts | 9° |
| 2026-05-07 12:04 | 42.27492 | 0.85278 | 36960 ft | 482 kts | 9° |
| 2026-05-07 12:05 | 42.34060 | 0.87169 | 36965 ft | 482 kts | 9° |
| 2026-05-07 12:05 | 42.40622 | 0.89062 | 36963 ft | 482 kts | 9° |
| 2026-05-07 12:06 | 42.47188 | 0.90959 | 36965 ft | 483 kts | 9° |
| 2026-05-07 12:06 | 42.53757 | 0.92845 | 36973 ft | 483 kts | 9° |
| 2026-05-07 12:07 | 42.60332 | 0.94734 | 36970 ft | 483 kts | 9° |
| 2026-05-07 12:07 | 42.66904 | 0.96632 | 36967 ft | 481 kts | 10° |
| 2026-05-07 12:08 | 42.73459 | 0.98528 | 36958 ft | 481 kts | 10° |
| 2026-05-07 12:08 | 42.80024 | 0.99472 | 36952 ft | 474 kts | 353° |
| 2026-05-07 12:09 | 42.86559 | 0.98550 | 36973 ft | 472 kts | 350° |
| 2026-05-07 12:09 | 42.93069 | 0.97490 | 36967 ft | 470 kts | 350° |
| 2026-05-07 12:10 | 42.99567 | 0.96474 | 36983 ft | 470 kts | 351° |
| 2026-05-07 12:10 | 43.06066 | 0.95503 | 36981 ft | 470 kts | 351° |
| 2026-05-07 12:11 | 43.12580 | 0.94544 | 36982 ft | 470 kts | 351° |
| 2026-05-07 12:11 | 43.19036 | 0.93593 | 36986 ft | 470 kts | 351° |
| 2026-05-07 12:12 | 43.25538 | 0.92630 | 36983 ft | 470 kts | 351° |
| 2026-05-07 12:12 | 43.32051 | 0.91663 | 36990 ft | 470 kts | 351° |
| 2026-05-07 12:13 | 43.38567 | 0.90693 | 36984 ft | 470 kts | 351° |
| 2026-05-07 12:13 | 43.45075 | 0.89722 | 36991 ft | 470 kts | 351° |
| 2026-05-07 12:14 | 43.51579 | 0.88749 | 36987 ft | 470 kts | 351° |
| 2026-05-07 12:14 | 43.58081 | 0.87775 | 36994 ft | 470 kts | 351° |
| 2026-05-07 12:15 | 43.64544 | 0.86804 | 36989 ft | 470 kts | 351° |
| 2026-05-07 12:15 | 43.71049 | 0.85825 | 36989 ft | 470 kts | 351° |
| 2026-05-07 12:16 | 43.77553 | 0.84844 | 36991 ft | 470 kts | 351° |
| 2026-05-07 12:16 | 43.84054 | 0.83862 | 36998 ft | 469 kts | 351° |
| 2026-05-07 12:17 | 43.90551 | 0.82878 | 36993 ft | 469 kts | 351° |
| 2026-05-07 12:17 | 43.97051 | 0.81891 | 36995 ft | 469 kts | 351° |
| 2026-05-07 12:18 | 44.03493 | 0.80910 | 36996 ft | 469 kts | 351° |
| 2026-05-07 12:18 | 44.09984 | 0.79921 | 36995 ft | 469 kts | 351° |
| 2026-05-07 12:19 | 44.16470 | 0.78930 | 36997 ft | 468 kts | 351° |
| 2026-05-07 12:19 | 44.22950 | 0.77937 | 36991 ft | 468 kts | 351° |
| 2026-05-07 12:20 | 44.29423 | 0.76943 | 37002 ft | 468 kts | 351° |
| 2026-05-07 12:20 | 44.35899 | 0.75940 | 36998 ft | 468 kts | 350° |
| 2026-05-07 12:21 | 44.42345 | 0.74734 | 36998 ft | 467 kts | 349° |
| 2026-05-07 12:21 | 44.48781 | 0.73432 | 37004 ft | 467 kts | 349° |
| 2026-05-07 12:22 | 44.55170 | 0.72155 | 37012 ft | 467 kts | 349° |
| 2026-05-07 12:22 | 44.61617 | 0.70884 | 37011 ft | 467 kts | 349° |
| 2026-05-07 12:23 | 44.68055 | 0.69622 | 37020 ft | 467 kts | 349° |
| 2026-05-07 12:23 | 44.74492 | 0.68356 | 37019 ft | 467 kts | 349° |
| 2026-05-07 12:24 | 44.80936 | 0.67086 | 37023 ft | 467 kts | 349° |
| 2026-05-07 12:24 | 44.87361 | 0.65816 | 37024 ft | 467 kts | 349° |
| 2026-05-07 12:25 | 44.93793 | 0.64542 | 37020 ft | 467 kts | 349° |
| 2026-05-07 12:25 | 45.00184 | 0.63274 | 37020 ft | 466 kts | 349° |
| 2026-05-07 12:26 | 45.06610 | 0.61995 | 37001 ft | 466 kts | 349° |
| 2026-05-07 12:26 | 45.13040 | 0.60713 | 37002 ft | 466 kts | 348° |
| 2026-05-07 12:27 | 45.19473 | 0.59426 | 36997 ft | 467 kts | 348° |
| 2026-05-07 12:27 | 45.25911 | 0.58137 | 37006 ft | 467 kts | 348° |
| 2026-05-07 12:28 | 45.32350 | 0.56844 | 37008 ft | 467 kts | 348° |
| 2026-05-07 12:28 | 45.38779 | 0.55550 | 36994 ft | 467 kts | 348° |
| 2026-05-07 12:29 | 45.45208 | 0.54253 | 37007 ft | 466 kts | 348° |
| 2026-05-07 12:29 | 45.51588 | 0.52963 | 37005 ft | 465 kts | 348° |
| 2026-05-07 12:30 | 45.57997 | 0.51664 | 37004 ft | 465 kts | 348° |
| 2026-05-07 12:30 | 45.64405 | 0.50362 | 37000 ft | 464 kts | 348° |
| 2026-05-07 12:31 | 45.70804 | 0.49059 | 36995 ft | 464 kts | 348° |
| 2026-05-07 12:31 | 45.77224 | 0.48695 | 36996 ft | 469 kts | 4° |
| 2026-05-07 12:32 | 45.83638 | 0.50630 | 37002 ft | 472 kts | 11° |
| 2026-05-07 12:32 | 45.90006 | 0.52915 | 37006 ft | 471 kts | 11° |
| 2026-05-07 12:33 | 45.99576 | 0.56266 | 37012 ft | 471 kts | 11° |
| 2026-05-07 12:33 | 46.05957 | 0.58448 | 37009 ft | 471 kts | 11° |
| 2026-05-07 12:34 | 46.12290 | 0.60609 | 37007 ft | 471 kts | 11° |
| 2026-05-07 12:34 | 46.18666 | 0.62791 | 37005 ft | 471 kts | 11° |
| 2026-05-07 12:35 | 46.25040 | 0.64981 | 37010 ft | 471 kts | 11° |
| 2026-05-07 12:35 | 46.31412 | 0.67175 | 37014 ft | 471 kts | 11° |
| 2026-05-07 12:36 | 46.37790 | 0.69377 | 37011 ft | 471 kts | 11° |
| 2026-05-07 12:36 | 46.44161 | 0.71582 | 37014 ft | 471 kts | 11° |
| 2026-05-07 12:37 | 46.50528 | 0.73790 | 37022 ft | 470 kts | 11° |
| 2026-05-07 12:37 | 46.56902 | 0.76007 | 37014 ft | 470 kts | 11° |
| 2026-05-07 12:38 | 46.63266 | 0.78225 | 37023 ft | 470 kts | 11° |
| 2026-05-07 12:38 | 46.69627 | 0.80446 | 36530 ft | 477 kts | 11° |
| 2026-05-07 12:39 | 46.72843 | 0.81572 | 36006 ft | 474 kts | 11° |
| 2026-05-07 12:39 | 46.76052 | 0.82697 | 35375 ft | 474 kts | 11° |
| 2026-05-07 12:39 | 46.79261 | 0.83824 | 34736 ft | 474 kts | 11° |
| 2026-05-07 12:39 | 46.82470 | 0.84952 | 34082 ft | 475 kts | 11° |
| 2026-05-07 12:40 | 46.85687 | 0.86083 | 33291 ft | 476 kts | 11° |
| 2026-05-07 12:40 | 46.88902 | 0.87215 | 32685 ft | 473 kts | 11° |
| 2026-05-07 12:40 | 46.92072 | 0.88335 | 32213 ft | 467 kts | 11° |
| 2026-05-07 12:40 | 46.95222 | 0.89448 | 31716 ft | 463 kts | 11° |
| 2026-05-07 12:41 | 46.98336 | 0.90549 | 31238 ft | 458 kts | 11° |
| 2026-05-07 12:41 | 47.01421 | 0.91641 | 30773 ft | 454 kts | 12° |
| 2026-05-07 12:41 | 47.04480 | 0.92725 | 30312 ft | 450 kts | 12° |
| 2026-05-07 12:41 | 47.07504 | 0.93798 | 29807 ft | 446 kts | 12° |
| 2026-05-07 12:42 | 47.10505 | 0.94863 | 29287 ft | 441 kts | 12° |
| 2026-05-07 12:42 | 47.13440 | 0.95907 | 28820 ft | 436 kts | 12° |
| 2026-05-07 12:42 | 47.16373 | 0.96951 | 28345 ft | 431 kts | 12° |
| 2026-05-07 12:42 | 47.19271 | 0.97984 | 27877 ft | 427 kts | 12° |
| 2026-05-07 12:43 | 47.22143 | 0.99009 | 27403 ft | 423 kts | 12° |
| 2026-05-07 12:43 | 47.24990 | 1.00026 | 26940 ft | 419 kts | 12° |
| 2026-05-07 12:43 | 47.27807 | 1.01033 | 26482 ft | 415 kts | 12° |
| 2026-05-07 12:43 | 47.30605 | 1.02034 | 26031 ft | 412 kts | 12° |
| 2026-05-07 12:44 | 47.33382 | 1.03029 | 25583 ft | 408 kts | 12° |
| 2026-05-07 12:44 | 47.36142 | 1.04018 | 25137 ft | 405 kts | 12° |
| 2026-05-07 12:44 | 47.38872 | 1.04999 | 24699 ft | 403 kts | 12° |
| 2026-05-07 12:44 | 47.41555 | 1.05964 | 24264 ft | 400 kts | 12° |
| 2026-05-07 12:45 | 47.44237 | 1.07015 | 23812 ft | 399 kts | 15° |
| 2026-05-07 12:45 | 47.46866 | 1.08353 | 23328 ft | 398 kts | 18° |
| 2026-05-07 12:45 | 47.49465 | 1.09752 | 22822 ft | 397 kts | 18° |
| 2026-05-07 12:45 | 47.51185 | 1.10671 | 22510 ft | 396 kts | 18° |
| 2026-05-07 12:46 | 47.54644 | 1.12464 | 21912 ft | 392 kts | 17° |
| 2026-05-07 12:46 | 47.56348 | 1.13331 | 21613 ft | 390 kts | 17° |
| 2026-05-07 12:46 | 47.58914 | 1.14628 | 21168 ft | 388 kts | 17° |
| 2026-05-07 12:46 | 47.61459 | 1.15915 | 20720 ft | 385 kts | 17° |
| 2026-05-07 12:47 | 47.63990 | 1.17196 | 20298 ft | 383 kts | 17° |
| 2026-05-07 12:47 | 47.66504 | 1.18473 | 19873 ft | 381 kts | 17° |
| 2026-05-07 12:47 | 47.69010 | 1.19748 | 19450 ft | 379 kts | 17° |
| 2026-05-07 12:47 | 47.71499 | 1.21017 | 19027 ft | 377 kts | 17° |
| 2026-05-07 12:48 | 47.73975 | 1.22280 | 18611 ft | 376 kts | 17° |
| 2026-05-07 12:48 | 47.76440 | 1.23540 | 18177 ft | 374 kts | 17° |
| 2026-05-07 12:48 | 47.78906 | 1.24802 | 17702 ft | 372 kts | 17° |
| 2026-05-07 12:48 | 47.81349 | 1.26053 | 17253 ft | 370 kts | 17° |
| 2026-05-07 12:49 | 47.83772 | 1.27296 | 16835 ft | 367 kts | 17° |
| 2026-05-07 12:49 | 47.86176 | 1.28530 | 16417 ft | 364 kts | 17° |
| 2026-05-07 12:49 | 47.88532 | 1.29741 | 16016 ft | 361 kts | 17° |
| 2026-05-07 12:49 | 47.90900 | 1.30959 | 15611 ft | 359 kts | 17° |
| 2026-05-07 12:50 | 47.93253 | 1.32169 | 15214 ft | 356 kts | 17° |
| 2026-05-07 12:50 | 47.95589 | 1.33373 | 14818 ft | 354 kts | 17° |
| 2026-05-07 12:50 | 47.97912 | 1.34571 | 14424 ft | 352 kts | 17° |
| 2026-05-07 12:50 | 48.00224 | 1.35764 | 14030 ft | 351 kts | 17° |
| 2026-05-07 12:51 | 48.02527 | 1.36954 | 13612 ft | 349 kts | 17° |
| 2026-05-07 12:51 | 48.04813 | 1.38136 | 13189 ft | 347 kts | 17° |
| 2026-05-07 12:51 | 48.07011 | 1.39610 | 12804 ft | 346 kts | 31° |
| 2026-05-07 12:51 | 48.08975 | 1.41647 | 12504 ft | 341 kts | 34° |
| 2026-05-07 12:52 | 48.10904 | 1.43683 | 12183 ft | 337 kts | 33° |
| 2026-05-07 12:52 | 48.12797 | 1.45633 | 11898 ft | 332 kts | 32° |
| 2026-05-07 12:52 | 48.14683 | 1.47553 | 11575 ft | 327 kts | 32° |
| 2026-05-07 12:52 | 48.16574 | 1.49465 | 11263 ft | 318 kts | 32° |
| 2026-05-07 12:53 | 48.18358 | 1.51267 | 11005 ft | 308 kts | 32° |
| 2026-05-07 12:53 | 48.20117 | 1.53047 | 10703 ft | 301 kts | 32° |
| 2026-05-07 12:53 | 48.21838 | 1.54792 | 10411 ft | 296 kts | 32° |
| 2026-05-07 12:53 | 48.23521 | 1.56500 | 10136 ft | 289 kts | 32° |
| 2026-05-07 12:54 | 48.25165 | 1.58168 | 9865 ft | 282 kts | 32° |
| 2026-05-07 12:54 | 48.26777 | 1.59805 | 9587 ft | 277 kts | 32° |
| 2026-05-07 12:54 | 48.28363 | 1.61416 | 9332 ft | 274 kts | 32° |
| 2026-05-07 12:54 | 48.29941 | 1.63019 | 9082 ft | 273 kts | 33° |
| 2026-05-07 12:55 | 48.31522 | 1.64630 | 8847 ft | 276 kts | 33° |
| 2026-05-07 12:55 | 48.33084 | 1.66223 | 8741 ft | 264 kts | 33° |
| 2026-05-07 12:55 | 48.34560 | 1.67729 | 8636 ft | 250 kts | 33° |
| 2026-05-07 12:55 | 48.35962 | 1.69163 | 8531 ft | 237 kts | 32° |
| 2026-05-07 12:56 | 48.37292 | 1.70522 | 8431 ft | 225 kts | 33° |
| 2026-05-07 12:56 | 48.38564 | 1.71821 | 8206 ft | 219 kts | 33° |
| 2026-05-07 12:56 | 48.39803 | 1.73134 | 7922 ft | 217 kts | 36° |
| 2026-05-07 12:56 | 48.40968 | 1.74556 | 7657 ft | 213 kts | 38° |
| 2026-05-07 12:57 | 48.42067 | 1.75941 | 7598 ft | 199 kts | 38° |
| 2026-05-07 12:57 | 48.43104 | 1.77247 | 7409 ft | 191 kts | 38° |
| 2026-05-07 12:57 | 48.44108 | 1.78514 | 7134 ft | 190 kts | 38° |
| 2026-05-07 12:57 | 48.45118 | 1.79786 | 6857 ft | 188 kts | 38° |
| 2026-05-07 12:58 | 48.46120 | 1.81044 | 6592 ft | 187 kts | 38° |
| 2026-05-07 12:58 | 48.47113 | 1.82291 | 6294 ft | 186 kts | 38° |
| 2026-05-07 12:58 | 48.48105 | 1.83534 | 6020 ft | 184 kts | 38° |
| 2026-05-07 12:58 | 48.49089 | 1.84766 | 5709 ft | 184 kts | 38° |
| 2026-05-07 12:59 | 48.50067 | 1.85994 | 5414 ft | 182 kts | 39° |
| 2026-05-07 12:59 | 48.51039 | 1.87212 | 5131 ft | 180 kts | 38° |
| 2026-05-07 12:59 | 48.51998 | 1.88417 | 4869 ft | 179 kts | 39° |
| 2026-05-07 12:59 | 48.52954 | 1.89618 | 4535 ft | 179 kts | 39° |
| 2026-05-07 13:00 | 48.53909 | 1.90817 | 4238 ft | 178 kts | 39° |
| 2026-05-07 13:00 | 48.54859 | 1.92005 | 4039 ft | 179 kts | 39° |
| 2026-05-07 13:00 | 48.55833 | 1.93229 | 4019 ft | 183 kts | 39° |
| 2026-05-07 13:00 | 48.56800 | 1.94448 | 4000 ft | 179 kts | 38° |
| 2026-05-07 13:01 | 48.57751 | 1.95644 | 3994 ft | 177 kts | 39° |
| 2026-05-07 13:01 | 48.58693 | 1.96828 | 3994 ft | 176 kts | 39° |
| 2026-05-07 13:01 | 48.59644 | 1.98023 | 4001 ft | 179 kts | 39° |
| 2026-05-07 13:01 | 48.60509 | 1.99372 | 3997 ft | 181 kts | 56° |
| 2026-05-07 13:02 | 48.61142 | 2.00969 | 3996 ft | 178 kts | 58° |
| 2026-05-07 13:02 | 48.61755 | 2.02586 | 4011 ft | 178 kts | 60° |
| 2026-05-07 13:02 | 48.62354 | 2.04241 | 3994 ft | 180 kts | 60° |
| 2026-05-07 13:02 | 48.62942 | 2.05899 | 4002 ft | 179 kts | 60° |
| 2026-05-07 13:03 | 48.63530 | 2.07572 | 3896 ft | 181 kts | 61° |
| 2026-05-07 13:03 | 48.64122 | 2.09265 | 3674 ft | 183 kts | 61° |
| 2026-05-07 13:03 | 48.64706 | 2.10935 | 3430 ft | 175 kts | 61° |
| 2026-05-07 13:03 | 48.65259 | 2.12516 | 3238 ft | 162 kts | 61° |
| 2026-05-07 13:04 | 48.65762 | 2.13953 | 3002 ft | 147 kts | 61° |
| 2026-05-07 13:04 | 48.66227 | 2.15279 | 2798 ft | 140 kts | 61° |
| 2026-05-07 13:04 | 48.66692 | 2.16595 | 2619 ft | 144 kts | 61° |
| 2026-05-07 13:04 | 48.67155 | 2.17923 | 2424 ft | 144 kts | 61° |
| 2026-05-07 13:05 | 48.67631 | 2.19280 | 2225 ft | 144 kts | 61° |
| 2026-05-07 13:05 | 48.68103 | 2.20620 | 2021 ft | 144 kts | 61° |
| 2026-05-07 13:05 | 48.68573 | 2.21954 | 1820 ft | 143 kts | 61° |
| 2026-05-07 13:05 | 48.69033 | 2.23262 | 1633 ft | 142 kts | 61° |
| 2026-05-07 13:06 | 48.69497 | 2.24584 | 1440 ft | 141 kts | 62° |
| 2026-05-07 13:06 | 48.69955 | 2.25889 | 1225 ft | 138 kts | 62° |
| 2026-05-07 13:06 | 48.70407 | 2.27172 | 1038 ft | 138 kts | 62° |
| 2026-05-07 13:06 | 48.70864 | 2.28452 | 870 ft | 138 kts | 61° |
| 2026-05-07 13:07 | 48.71319 | 2.29719 | 700 ft | 138 kts | 64° |
| 2026-05-07 13:07 | 48.71766 | 2.31014 | 486 ft | 139 kts | 63° |
| 2026-05-07 13:07 | 48.72216 | 2.32293 | 341 ft | 136 kts | 62° |
| 2026-05-07 13:07 | 48.72629 | 2.33460 | 300 ft | 114 kts | 62° |
| 2026-05-07 13:08 | 48.72927 | 2.34317 | 298 ft | 65 kts | 62° |
| 2026-05-07 13:08 | 48.73006 | 2.34704 | 296 ft | 25 kts | 81° |
| 2026-05-07 13:08 | 48.73028 | 2.34938 | 295 ft | 20 kts | 82° |
| 2026-05-07 13:08 | 48.73039 | 2.35147 | 295 ft | 20 kts | 95° |
| 2026-05-07 13:09 | 48.72983 | 2.35273 | 297 ft | 14 kts | 143° |
| 2026-05-07 13:09 | 48.72919 | 2.35322 | 298 ft | 1 kts | 158° |
| 2026-05-07 13:09 | 48.72915 | 2.35327 | 297 ft | 1 kts | 137° |
| 2026-05-07 13:09 | 48.72911 | 2.35337 | 296 ft | 1 kts | 122° |
| 2026-05-07 13:10 | 48.72907 | 2.35351 | 298 ft | 2 kts | 114° |
| 2026-05-07 13:10 | 48.72900 | 2.35376 | 295 ft | 3 kts | 111° |
| 2026-05-07 13:10 | 48.72881 | 2.35414 | 298 ft | 6 kts | 137° |
| 2026-05-07 13:10 | 48.72838 | 2.35440 | 296 ft | 8 kts | 166° |
| 2026-05-07 13:11 | 48.72777 | 2.35462 | 298 ft | 11 kts | 166° |
| 2026-05-07 13:11 | 48.72699 | 2.35492 | 298 ft | 13 kts | 162° |
| 2026-05-07 13:11 | 48.72608 | 2.35536 | 296 ft | 15 kts | 164° |
| 2026-05-07 13:11 | 48.72503 | 2.35580 | 298 ft | 16 kts | 164° |
| 2026-05-07 13:12 | 48.72456 | 2.35643 | 297 ft | 2 kts | 85° |
| 2026-05-07 13:12 | 48.72462 | 2.35675 | 299 ft | 4 kts | 74° |
| 2026-05-07 13:12 | 48.72473 | 2.35733 | 297 ft | 7 kts | 74° |
| 2026-05-07 13:12 | 48.72477 | 2.35818 | 299 ft | 9 kts | 94° |
| 2026-05-07 13:13 | 48.72471 | 2.35924 | 295 ft | 11 kts | 96° |
| 2026-05-07 13:13 | 48.72472 | 2.36033 | 295 ft | 0 kts | 81° |
| 2026-05-07 13:13 | 48.72474 | 2.36048 | 295 ft | 3 kts | 81° |
| 2026-05-07 13:13 | 48.72480 | 2.36095 | 297 ft | 6 kts | 73° |
| 2026-05-07 13:14 | 48.72495 | 2.36168 | 299 ft | 9 kts | 72° |
| 2026-05-07 13:14 | 48.72514 | 2.36259 | 299 ft | 4 kts | 58° |
| 2026-05-07 13:14 | 48.72540 | 2.36265 | 295 ft | 4 kts | 342° |
| 2026-05-07 13:14 | 48.72568 | 2.36255 | 298 ft | 4 kts | 349° |
| 2026-05-07 13:15 | 48.72574 | 2.36253 | 297 ft | 0 kts | 349° |
| 2026-05-07 13:15 | 48.72578 | 2.36251 | 297 ft | 1 kts | 349° |
| 2026-05-07 13:15 | 48.72587 | 2.36249 | 296 ft | 1 kts | 349° |
| 2026-05-07 13:15 | 48.72592 | 2.36247 | 295 ft | 0 kts | 349° |